RYR12DC GCFV-LEBL
Flight info
| Callsign | RYR12DC |
|---|---|
| Flight time | N/A |
| Altitude | 36000 |
| Route | KORAL UG5 SONSO DCT NIRAL UN871 OSDAM UM985 BARPA DCT XAVIR DCT PIMOS DCT RIXUR DCT PEPAS DCT ARPEX DCT KOSEL DCT BUDIT DCT ETURA DCT TOSTO DCT OLPOS DCT BEGOX DCT VLC L34 CASIM DCT MATEX |
| Aircraft | A320/M-SDE3FGHIRWY/LB1 |
Departure
| Time | N/A |
|---|---|
| Airport | Fuerteventura Airport (GCFV) |
Arrival
| Time | 2026-05-03 21:53 |
|---|---|
| Airport | Josep Tarradellas Barcelona-El Prat Airport (LEBL) |
| Time | Latitude | Longitude | Altitude | Speed | Heading |
|---|---|---|---|---|---|
| 2026-05-03 20:15 | 32.98409 | -8.62638 | 36095 ft | 497 kts | 41° |
| 2026-05-03 20:15 | 33.03237 | -8.56714 | 36093 ft | 498 kts | 41° |
| 2026-05-03 20:16 | 33.08050 | -8.50779 | 36100 ft | 498 kts | 42° |
| 2026-05-03 20:16 | 33.12853 | -8.44834 | 36095 ft | 498 kts | 42° |
| 2026-05-03 20:17 | 33.17659 | -8.38891 | 36088 ft | 497 kts | 40° |
| 2026-05-03 20:17 | 33.23077 | -8.33948 | 36069 ft | 486 kts | 26° |
| 2026-05-03 20:18 | 33.28818 | -8.29670 | 36078 ft | 486 kts | 26° |
| 2026-05-03 20:18 | 33.34542 | -8.25355 | 36089 ft | 487 kts | 26° |
| 2026-05-03 20:19 | 33.40266 | -8.21021 | 36082 ft | 486 kts | 26° |
| 2026-05-03 20:19 | 33.45991 | -8.16691 | 36097 ft | 487 kts | 26° |
| 2026-05-03 20:20 | 33.51720 | -8.12356 | 36093 ft | 487 kts | 26° |
| 2026-05-03 20:20 | 33.57456 | -8.08011 | 36090 ft | 487 kts | 26° |
| 2026-05-03 20:21 | 33.63188 | -8.03664 | 36079 ft | 488 kts | 26° |
| 2026-05-03 20:21 | 33.68914 | -7.99299 | 36087 ft | 488 kts | 26° |
| 2026-05-03 20:22 | 33.74644 | -7.94927 | 36102 ft | 488 kts | 26° |
| 2026-05-03 20:22 | 33.80391 | -7.90540 | 36097 ft | 489 kts | 26° |
| 2026-05-03 20:23 | 33.86094 | -7.86188 | 36100 ft | 489 kts | 26° |
| 2026-05-03 20:23 | 33.91838 | -7.81787 | 36099 ft | 489 kts | 26° |
| 2026-05-03 20:24 | 33.97572 | -7.77377 | 36146 ft | 490 kts | 26° |
| 2026-05-03 20:24 | 34.03324 | -7.72954 | 36134 ft | 490 kts | 26° |
| 2026-05-03 20:25 | 34.09079 | -7.68541 | 36120 ft | 491 kts | 26° |
| 2026-05-03 20:25 | 34.14845 | -7.64105 | 36110 ft | 491 kts | 26° |
| 2026-05-03 20:26 | 34.20617 | -7.59642 | 36105 ft | 492 kts | 26° |
| 2026-05-03 20:26 | 34.26377 | -7.55184 | 36139 ft | 492 kts | 26° |
| 2026-05-03 20:27 | 34.32137 | -7.50720 | 36117 ft | 492 kts | 26° |
| 2026-05-03 20:27 | 34.37916 | -7.46241 | 36113 ft | 492 kts | 26° |
| 2026-05-03 20:28 | 34.43646 | -7.41786 | 36111 ft | 493 kts | 26° |
| 2026-05-03 20:28 | 34.49414 | -7.37286 | 36110 ft | 493 kts | 26° |
| 2026-05-03 20:29 | 34.55189 | -7.32799 | 36125 ft | 493 kts | 26° |
| 2026-05-03 20:29 | 34.60963 | -7.28289 | 36115 ft | 494 kts | 26° |
| 2026-05-03 20:30 | 34.66736 | -7.23769 | 36107 ft | 494 kts | 26° |
| 2026-05-03 20:30 | 34.72513 | -7.19241 | 36104 ft | 494 kts | 26° |
| 2026-05-03 20:31 | 34.78295 | -7.14702 | 36143 ft | 494 kts | 26° |
| 2026-05-03 20:31 | 34.84080 | -7.10162 | 36104 ft | 495 kts | 26° |
| 2026-05-03 20:32 | 34.89876 | -7.05602 | 36098 ft | 496 kts | 26° |
| 2026-05-03 20:32 | 34.95667 | -7.01027 | 36098 ft | 496 kts | 26° |
| 2026-05-03 20:33 | 35.01437 | -6.96465 | 36093 ft | 497 kts | 26° |
| 2026-05-03 20:33 | 35.07237 | -6.91876 | 36124 ft | 497 kts | 26° |
| 2026-05-03 20:34 | 35.13050 | -6.87264 | 36112 ft | 498 kts | 26° |
| 2026-05-03 20:34 | 35.18866 | -6.82644 | 36093 ft | 499 kts | 26° |
| 2026-05-03 20:35 | 35.24691 | -6.78008 | 36097 ft | 499 kts | 26° |
| 2026-05-03 20:35 | 35.30499 | -6.73357 | 36095 ft | 501 kts | 29° |
| 2026-05-03 20:36 | 35.35616 | -6.67446 | 36102 ft | 514 kts | 49° |
| 2026-05-03 20:36 | 35.39411 | -6.59961 | 36086 ft | 518 kts | 57° |
| 2026-05-03 20:37 | 35.43047 | -6.52330 | 36076 ft | 518 kts | 57° |
| 2026-05-03 20:37 | 35.46738 | -6.44737 | 36064 ft | 518 kts | 56° |
| 2026-05-03 20:38 | 35.50548 | -6.37279 | 36071 ft | 518 kts | 54° |
| 2026-05-03 20:38 | 35.54403 | -6.29800 | 36080 ft | 518 kts | 55° |
| 2026-05-03 20:39 | 35.58223 | -6.22282 | 36068 ft | 518 kts | 55° |
| 2026-05-03 20:39 | 35.62004 | -6.14737 | 36056 ft | 518 kts | 56° |
| 2026-05-03 20:40 | 35.65776 | -6.07193 | 36024 ft | 518 kts | 56° |
| 2026-05-03 20:40 | 35.69562 | -5.99658 | 36031 ft | 518 kts | 56° |
| 2026-05-03 20:41 | 35.72704 | -5.93381 | 36036 ft | 518 kts | 56° |
| 2026-05-03 20:41 | 35.75968 | -5.85472 | 36063 ft | 519 kts | 62° |
| 2026-05-03 20:42 | 35.79118 | -5.77465 | 36060 ft | 519 kts | 62° |
| 2026-05-03 20:42 | 35.82257 | -5.69458 | 36047 ft | 519 kts | 62° |
| 2026-05-03 20:43 | 35.85414 | -5.61462 | 36049 ft | 519 kts | 62° |
| 2026-05-03 20:43 | 35.88645 | -5.53510 | 36047 ft | 518 kts | 61° |
| 2026-05-03 20:44 | 35.91887 | -5.45567 | 36044 ft | 518 kts | 61° |
| 2026-05-03 20:44 | 35.95105 | -5.37607 | 36041 ft | 518 kts | 62° |
| 2026-05-03 20:45 | 35.98303 | -5.29621 | 36040 ft | 518 kts | 62° |
| 2026-05-03 20:45 | 36.01498 | -5.21640 | 36048 ft | 518 kts | 61° |
| 2026-05-03 20:46 | 36.04803 | -5.13731 | 36049 ft | 517 kts | 60° |
| 2026-05-03 20:46 | 36.08160 | -5.05869 | 36052 ft | 517 kts | 60° |
| 2026-05-03 20:47 | 36.11462 | -4.98027 | 36053 ft | 517 kts | 61° |
| 2026-05-03 20:47 | 36.14908 | -4.90233 | 36075 ft | 514 kts | 52° |
| 2026-05-03 20:48 | 36.19533 | -4.83566 | 36058 ft | 508 kts | 41° |
| 2026-05-03 20:48 | 36.24441 | -4.77255 | 36045 ft | 509 kts | 41° |
| 2026-05-03 20:49 | 36.29346 | -4.70921 | 36029 ft | 509 kts | 41° |
| 2026-05-03 20:49 | 36.34247 | -4.64572 | 36028 ft | 510 kts | 41° |
| 2026-05-03 20:50 | 36.39150 | -4.58206 | 36027 ft | 510 kts | 41° |
| 2026-05-03 20:50 | 36.44050 | -4.51833 | 36046 ft | 510 kts | 41° |
| 2026-05-03 20:51 | 36.48952 | -4.45446 | 36034 ft | 511 kts | 41° |
| 2026-05-03 20:51 | 36.53849 | -4.39048 | 36030 ft | 511 kts | 41° |
| 2026-05-03 20:52 | 36.58748 | -4.32642 | 36023 ft | 511 kts | 41° |
| 2026-05-03 20:52 | 36.63645 | -4.26233 | 36024 ft | 511 kts | 41° |
| 2026-05-03 20:53 | 36.68538 | -4.19808 | 36052 ft | 511 kts | 41° |
| 2026-05-03 20:53 | 36.73430 | -4.13379 | 36039 ft | 511 kts | 41° |
| 2026-05-03 20:54 | 36.78322 | -4.06936 | 36039 ft | 511 kts | 42° |
| 2026-05-03 20:54 | 36.85611 | -3.97286 | 36032 ft | 511 kts | 42° |
| 2026-05-03 20:55 | 36.90491 | -3.90824 | 36040 ft | 511 kts | 42° |
| 2026-05-03 20:55 | 36.95364 | -3.84362 | 36072 ft | 511 kts | 42° |
| 2026-05-03 20:56 | 37.00240 | -3.77878 | 36042 ft | 511 kts | 42° |
| 2026-05-03 20:56 | 37.05113 | -3.71385 | 36041 ft | 511 kts | 42° |
| 2026-05-03 20:57 | 37.09986 | -3.64882 | 36049 ft | 512 kts | 42° |
| 2026-05-03 20:57 | 37.14879 | -3.58417 | 36048 ft | 511 kts | 41° |
| 2026-05-03 20:58 | 37.19848 | -3.52038 | 36075 ft | 511 kts | 40° |
| 2026-05-03 20:58 | 37.24827 | -3.45665 | 36073 ft | 511 kts | 41° |
| 2026-05-03 20:59 | 37.29786 | -3.39256 | 36067 ft | 511 kts | 41° |
| 2026-05-03 20:59 | 37.34731 | -3.32822 | 36070 ft | 511 kts | 41° |
| 2026-05-03 21:00 | 37.38837 | -3.27471 | 36061 ft | 512 kts | 41° |
| 2026-05-03 21:00 | 37.44585 | -3.19966 | 36092 ft | 512 kts | 41° |
| 2026-05-03 21:01 | 37.49534 | -3.13509 | 36068 ft | 512 kts | 41° |
| 2026-05-03 21:01 | 37.54468 | -3.07049 | 36062 ft | 512 kts | 41° |
| 2026-05-03 21:02 | 37.59401 | -3.00570 | 36043 ft | 512 kts | 41° |
| 2026-05-03 21:02 | 37.64330 | -2.94086 | 36051 ft | 512 kts | 41° |
| 2026-05-03 21:03 | 37.69256 | -2.87599 | 36067 ft | 511 kts | 41° |
| 2026-05-03 21:03 | 37.74157 | -2.81130 | 36046 ft | 508 kts | 41° |
| 2026-05-03 21:04 | 37.79039 | -2.74678 | 36051 ft | 508 kts | 41° |
| 2026-05-03 21:04 | 37.83919 | -2.68197 | 36053 ft | 508 kts | 42° |
| 2026-05-03 21:05 | 37.88790 | -2.61711 | 36054 ft | 508 kts | 41° |
| 2026-05-03 21:05 | 37.93663 | -2.55226 | 36088 ft | 509 kts | 41° |
| 2026-05-03 21:06 | 37.98537 | -2.48720 | 36078 ft | 508 kts | 42° |
| 2026-05-03 21:06 | 38.03411 | -2.42221 | 36071 ft | 508 kts | 42° |
| 2026-05-03 21:07 | 38.08291 | -2.35706 | 36067 ft | 508 kts | 42° |
| 2026-05-03 21:07 | 38.13152 | -2.29190 | 36068 ft | 509 kts | 42° |
| 2026-05-03 21:08 | 38.18016 | -2.22649 | 36089 ft | 509 kts | 42° |
| 2026-05-03 21:08 | 38.22679 | -2.15877 | 36049 ft | 511 kts | 48° |
| 2026-05-03 21:09 | 38.27081 | -2.08769 | 36046 ft | 511 kts | 48° |
| 2026-05-03 21:09 | 38.31450 | -2.01703 | 36052 ft | 512 kts | 48° |
| 2026-05-03 21:10 | 38.35855 | -1.94567 | 36044 ft | 512 kts | 48° |
| 2026-05-03 21:10 | 38.40256 | -1.87420 | 36038 ft | 512 kts | 48° |
| 2026-05-03 21:11 | 38.44651 | -1.80272 | 36055 ft | 512 kts | 48° |
| 2026-05-03 21:11 | 38.49047 | -1.73111 | 36049 ft | 512 kts | 48° |
| 2026-05-03 21:12 | 38.53434 | -1.65937 | 36051 ft | 512 kts | 48° |
| 2026-05-03 21:12 | 38.57824 | -1.58745 | 36055 ft | 513 kts | 48° |
| 2026-05-03 21:13 | 38.62205 | -1.51542 | 36035 ft | 512 kts | 48° |
| 2026-05-03 21:13 | 38.66577 | -1.44341 | 36071 ft | 512 kts | 48° |
| 2026-05-03 21:14 | 38.70943 | -1.37143 | 36058 ft | 512 kts | 48° |
| 2026-05-03 21:14 | 38.75304 | -1.29947 | 36052 ft | 511 kts | 48° |
| 2026-05-03 21:15 | 38.79656 | -1.22740 | 36053 ft | 511 kts | 48° |
| 2026-05-03 21:15 | 38.84003 | -1.15523 | 36047 ft | 511 kts | 48° |
| 2026-05-03 21:16 | 38.88346 | -1.08308 | 36047 ft | 511 kts | 48° |
| 2026-05-03 21:16 | 38.92674 | -1.01079 | 36054 ft | 510 kts | 49° |
| 2026-05-03 21:17 | 38.96270 | -0.95074 | 36049 ft | 509 kts | 48° |
| 2026-05-03 21:17 | 39.01287 | -0.86681 | 36039 ft | 509 kts | 49° |
| 2026-05-03 21:18 | 39.05748 | -0.79641 | 36037 ft | 504 kts | 39° |
| 2026-05-03 21:18 | 39.11206 | -0.74252 | 36028 ft | 488 kts | 21° |
| 2026-05-03 21:19 | 39.17181 | -0.70135 | 36046 ft | 487 kts | 20° |
| 2026-05-03 21:19 | 39.23156 | -0.66004 | 36037 ft | 487 kts | 21° |
| 2026-05-03 21:20 | 39.29128 | -0.61854 | 36035 ft | 488 kts | 21° |
| 2026-05-03 21:20 | 39.35103 | -0.57695 | 36058 ft | 488 kts | 21° |
| 2026-05-03 21:21 | 39.41078 | -0.53546 | 36068 ft | 487 kts | 21° |
| 2026-05-03 21:21 | 39.47044 | -0.49380 | 36056 ft | 487 kts | 21° |
| 2026-05-03 21:22 | 39.52891 | -0.44995 | 36052 ft | 490 kts | 26° |
| 2026-05-03 21:22 | 39.58602 | -0.40155 | 36061 ft | 491 kts | 28° |
| 2026-05-03 21:23 | 39.63321 | -0.36057 | 36050 ft | 490 kts | 28° |
| 2026-05-03 21:23 | 39.69023 | -0.31233 | 36047 ft | 488 kts | 27° |
| 2026-05-03 21:24 | 39.74740 | -0.26490 | 36039 ft | 488 kts | 27° |
| 2026-05-03 21:24 | 39.80457 | -0.21729 | 36038 ft | 487 kts | 27° |
| 2026-05-03 21:25 | 39.86151 | -0.16960 | 36053 ft | 486 kts | 28° |
| 2026-05-03 21:25 | 39.88973 | -0.14583 | 35847 ft | 484 kts | 28° |
| 2026-05-03 21:25 | 39.91719 | -0.12264 | 35563 ft | 479 kts | 28° |
| 2026-05-03 21:26 | 39.94508 | -0.09909 | 35059 ft | 477 kts | 28° |
| 2026-05-03 21:26 | 39.97286 | -0.07569 | 34545 ft | 476 kts | 28° |
| 2026-05-03 21:26 | 40.00067 | -0.05225 | 34025 ft | 475 kts | 28° |
| 2026-05-03 21:26 | 40.02846 | -0.02881 | 33463 ft | 474 kts | 28° |
| 2026-05-03 21:27 | 40.05606 | -0.00548 | 32939 ft | 471 kts | 29° |
| 2026-05-03 21:27 | 40.08351 | 0.01775 | 32448 ft | 468 kts | 29° |
| 2026-05-03 21:27 | 40.11071 | 0.04082 | 31938 ft | 466 kts | 30° |
| 2026-05-03 21:27 | 40.13784 | 0.06390 | 31431 ft | 462 kts | 30° |
| 2026-05-03 21:28 | 40.16469 | 0.08675 | 30929 ft | 460 kts | 30° |
| 2026-05-03 21:28 | 40.19111 | 0.10916 | 30449 ft | 457 kts | 30° |
| 2026-05-03 21:28 | 40.21795 | 0.13128 | 29939 ft | 453 kts | 25° |
| 2026-05-03 21:28 | 40.24628 | 0.14892 | 29375 ft | 448 kts | 21° |
| 2026-05-03 21:29 | 40.27249 | 0.17090 | 28825 ft | 451 kts | 43° |
| 2026-05-03 21:29 | 40.29267 | 0.20215 | 28289 ft | 448 kts | 58° |
| 2026-05-03 21:29 | 40.30721 | 0.23753 | 27748 ft | 437 kts | 64° |
| 2026-05-03 21:29 | 40.32050 | 0.27298 | 27226 ft | 429 kts | 65° |
| 2026-05-03 21:30 | 40.33337 | 0.30798 | 26706 ft | 422 kts | 65° |
| 2026-05-03 21:30 | 40.34585 | 0.34247 | 26199 ft | 416 kts | 66° |
| 2026-05-03 21:30 | 40.35809 | 0.37660 | 25796 ft | 412 kts | 66° |
| 2026-05-03 21:30 | 40.37024 | 0.41052 | 25529 ft | 410 kts | 66° |
| 2026-05-03 21:31 | 40.38242 | 0.44428 | 25281 ft | 408 kts | 65° |
| 2026-05-03 21:31 | 40.39461 | 0.47788 | 25042 ft | 407 kts | 65° |
| 2026-05-03 21:31 | 40.40679 | 0.51137 | 24807 ft | 405 kts | 65° |
| 2026-05-03 21:31 | 40.41892 | 0.54468 | 24567 ft | 404 kts | 65° |
| 2026-05-03 21:32 | 40.43100 | 0.57787 | 24332 ft | 403 kts | 65° |
| 2026-05-03 21:32 | 40.44303 | 0.61096 | 24100 ft | 401 kts | 66° |
| 2026-05-03 21:32 | 40.45499 | 0.64399 | 23863 ft | 400 kts | 66° |
| 2026-05-03 21:32 | 40.46692 | 0.67693 | 23637 ft | 398 kts | 66° |
| 2026-05-03 21:33 | 40.47876 | 0.70966 | 23392 ft | 397 kts | 66° |
| 2026-05-03 21:33 | 40.49056 | 0.74231 | 23120 ft | 395 kts | 66° |
| 2026-05-03 21:33 | 40.50228 | 0.77482 | 22825 ft | 393 kts | 66° |
| 2026-05-03 21:33 | 40.51395 | 0.80728 | 22556 ft | 391 kts | 66° |
| 2026-05-03 21:34 | 40.52551 | 0.83947 | 22293 ft | 389 kts | 66° |
| 2026-05-03 21:34 | 40.53703 | 0.87157 | 22024 ft | 388 kts | 66° |
| 2026-05-03 21:34 | 40.54854 | 0.90364 | 21757 ft | 386 kts | 66° |
| 2026-05-03 21:34 | 40.55998 | 0.93550 | 21523 ft | 385 kts | 66° |
| 2026-05-03 21:35 | 40.57136 | 0.96731 | 21260 ft | 383 kts | 66° |
| 2026-05-03 21:35 | 40.58256 | 0.99862 | 21004 ft | 382 kts | 66° |
| 2026-05-03 21:35 | 40.59385 | 1.03016 | 20755 ft | 381 kts | 66° |
| 2026-05-03 21:35 | 40.60512 | 1.06164 | 20506 ft | 379 kts | 66° |
| 2026-05-03 21:36 | 40.61631 | 1.09298 | 20257 ft | 378 kts | 66° |
| 2026-05-03 21:36 | 40.62744 | 1.12421 | 20007 ft | 377 kts | 66° |
| 2026-05-03 21:36 | 40.63849 | 1.15531 | 19760 ft | 375 kts | 66° |
| 2026-05-03 21:36 | 40.64957 | 1.18649 | 19530 ft | 373 kts | 66° |
| 2026-05-03 21:37 | 40.66053 | 1.21742 | 19281 ft | 372 kts | 66° |
| 2026-05-03 21:37 | 40.67144 | 1.24823 | 19045 ft | 371 kts | 66° |
| 2026-05-03 21:37 | 40.68231 | 1.27895 | 18810 ft | 370 kts | 66° |
| 2026-05-03 21:37 | 40.69314 | 1.30953 | 18576 ft | 369 kts | 66° |
| 2026-05-03 21:38 | 40.70394 | 1.34008 | 18350 ft | 368 kts | 66° |
| 2026-05-03 21:38 | 40.71472 | 1.37057 | 18091 ft | 366 kts | 66° |
| 2026-05-03 21:38 | 40.72550 | 1.40110 | 17823 ft | 365 kts | 66° |
| 2026-05-03 21:38 | 40.73618 | 1.43143 | 17560 ft | 363 kts | 66° |
| 2026-05-03 21:39 | 40.74678 | 1.46154 | 17298 ft | 361 kts | 66° |
| 2026-05-03 21:39 | 40.75731 | 1.49144 | 17055 ft | 357 kts | 66° |
| 2026-05-03 21:39 | 40.76769 | 1.52088 | 16712 ft | 354 kts | 66° |
| 2026-05-03 21:39 | 40.77809 | 1.55041 | 16323 ft | 352 kts | 66° |
| 2026-05-03 21:40 | 40.78833 | 1.57963 | 15951 ft | 351 kts | 66° |
| 2026-05-03 21:40 | 40.79857 | 1.60891 | 15560 ft | 350 kts | 66° |
| 2026-05-03 21:40 | 40.80877 | 1.63809 | 15182 ft | 350 kts | 66° |
| 2026-05-03 21:40 | 40.81895 | 1.66720 | 14788 ft | 349 kts | 66° |
| 2026-05-03 21:41 | 40.82911 | 1.69627 | 14412 ft | 348 kts | 66° |
| 2026-05-03 21:41 | 40.84036 | 1.72435 | 14085 ft | 343 kts | 54° |
| 2026-05-03 21:41 | 40.85672 | 1.74676 | 13477 ft | 337 kts | 37° |
| 2026-05-03 21:41 | 40.87522 | 1.76563 | 12767 ft | 334 kts | 36° |
| 2026-05-03 21:42 | 40.89360 | 1.78421 | 11840 ft | 340 kts | 36° |
| 2026-05-03 21:42 | 40.91215 | 1.80294 | 11446 ft | 327 kts | 36° |
| 2026-05-03 21:42 | 40.92992 | 1.82095 | 11023 ft | 317 kts | 36° |
| 2026-05-03 21:42 | 40.94732 | 1.83859 | 10388 ft | 315 kts | 36° |
| 2026-05-03 21:43 | 40.96462 | 1.85611 | 9809 ft | 311 kts | 36° |
| 2026-05-03 21:43 | 40.98166 | 1.87342 | 9199 ft | 307 kts | 36° |
| 2026-05-03 21:43 | 40.99752 | 1.89192 | 8666 ft | 301 kts | 51° |
| 2026-05-03 21:43 | 41.00671 | 1.91624 | 8120 ft | 296 kts | 78° |
| 2026-05-03 21:44 | 41.00671 | 1.94271 | 7822 ft | 278 kts | 108° |
| 2026-05-03 21:44 | 40.99819 | 1.96401 | 7699 ft | 252 kts | 138° |
| 2026-05-03 21:44 | 40.98428 | 1.97591 | 7394 ft | 232 kts | 168° |
| 2026-05-03 21:44 | 40.96880 | 1.97625 | 6947 ft | 222 kts | 201° |
| 2026-05-03 21:45 | 40.95631 | 1.96515 | 6615 ft | 217 kts | 233° |
| 2026-05-03 21:45 | 40.95004 | 1.94739 | 6397 ft | 214 kts | 260° |
| 2026-05-03 21:45 | 40.95098 | 1.92758 | 6226 ft | 221 kts | 288° |
| 2026-05-03 21:45 | 40.95952 | 1.91063 | 6029 ft | 227 kts | 318° |
| 2026-05-03 21:46 | 40.97369 | 1.90168 | 5827 ft | 231 kts | 349° |
| 2026-05-03 21:46 | 40.98965 | 1.90378 | 5611 ft | 236 kts | 22° |
| 2026-05-03 21:46 | 41.00234 | 1.91736 | 5399 ft | 237 kts | 51° |
| 2026-05-03 21:46 | 41.01313 | 1.93394 | 5181 ft | 237 kts | 49° |
| 2026-05-03 21:47 | 41.02398 | 1.95037 | 4972 ft | 237 kts | 49° |
| 2026-05-03 21:47 | 41.03527 | 1.96610 | 4760 ft | 235 kts | 37° |
| 2026-05-03 21:47 | 41.04948 | 1.97649 | 4549 ft | 234 kts | 21° |
| 2026-05-03 21:47 | 41.06457 | 1.98364 | 4334 ft | 233 kts | 18° |
| 2026-05-03 21:48 | 41.07990 | 1.99043 | 4201 ft | 233 kts | 18° |
| 2026-05-03 21:48 | 41.09524 | 1.99732 | 3958 ft | 232 kts | 18° |
| 2026-05-03 21:48 | 41.11048 | 2.00423 | 3663 ft | 230 kts | 18° |
| 2026-05-03 21:48 | 41.12578 | 2.01117 | 3371 ft | 229 kts | 19° |
| 2026-05-03 21:49 | 41.14065 | 2.01791 | 3072 ft | 229 kts | 19° |
| 2026-05-03 21:49 | 41.15572 | 2.02475 | 2765 ft | 229 kts | 19° |
| 2026-05-03 21:49 | 41.17059 | 2.03150 | 2460 ft | 221 kts | 19° |
| 2026-05-03 21:49 | 41.18481 | 2.03796 | 2169 ft | 211 kts | 19° |
| 2026-05-03 21:50 | 41.19823 | 2.04406 | 1902 ft | 201 kts | 20° |
| 2026-05-03 21:50 | 41.21112 | 2.04991 | 1653 ft | 190 kts | 20° |
| 2026-05-03 21:50 | 41.22324 | 2.05543 | 1374 ft | 178 kts | 20° |
| 2026-05-03 21:50 | 41.23423 | 2.06042 | 1163 ft | 156 kts | 20° |
| 2026-05-03 21:51 | 41.24404 | 2.06489 | 956 ft | 145 kts | 20° |
| 2026-05-03 21:51 | 41.25331 | 2.06912 | 767 ft | 140 kts | 20° |
| 2026-05-03 21:51 | 41.26237 | 2.07326 | 581 ft | 138 kts | 19° |
| 2026-05-03 21:51 | 41.27142 | 2.07738 | 401 ft | 137 kts | 18° |
| 2026-05-03 21:52 | 41.28045 | 2.08141 | 221 ft | 137 kts | 18° |
| 2026-05-03 21:52 | 41.28945 | 2.08560 | 35 ft | 135 kts | 17° |
| 2026-05-03 21:52 | 41.29701 | 2.08905 | 21 ft | 93 kts | 18° |
| 2026-05-03 21:52 | 41.30163 | 2.09111 | 16 ft | 55 kts | 19° |
| 2026-05-03 21:53 | 41.30487 | 2.09262 | 20 ft | 29 kts | 19° |
| 2026-05-03 21:53 | 41.30614 | 2.09235 | 20 ft | 20 kts | 314° |
| 2026-05-03 21:53 | 41.30681 | 2.09128 | 18 ft | 0 kts | 268° |
| 2026-05-03 21:54 | 41.30681 | 2.09120 | 18 ft | 2 kts | 266° |
| 2026-05-03 21:54 | 41.30677 | 2.09099 | 18 ft | 3 kts | 250° |
| 2026-05-03 21:54 | 41.30658 | 2.09082 | 18 ft | 4 kts | 213° |
| 2026-05-03 21:54 | 41.30623 | 2.09059 | 18 ft | 7 kts | 202° |
| 2026-05-03 21:55 | 41.30572 | 2.09037 | 19 ft | 9 kts | 197° |
| 2026-05-03 21:55 | 41.30505 | 2.09007 | 18 ft | 12 kts | 199° |
| 2026-05-03 21:55 | 41.30422 | 2.08966 | 18 ft | 14 kts | 210° |
| 2026-05-03 21:55 | 41.30372 | 2.08851 | 17 ft | 16 kts | 245° |
| 2026-05-03 21:56 | 41.30323 | 2.08708 | 17 ft | 19 kts | 246° |
| 2026-05-03 21:56 | 41.30267 | 2.08541 | 18 ft | 21 kts | 246° |
| 2026-05-03 21:56 | 41.30202 | 2.08355 | 18 ft | 23 kts | 244° |
| 2026-05-03 21:56 | 41.30162 | 2.08211 | 18 ft | 13 kts | 281° |
| 2026-05-03 21:57 | 41.30181 | 2.08100 | 20 ft | 14 kts | 247° |
| 2026-05-03 21:57 | 41.30136 | 2.07966 | 20 ft | 17 kts | 245° |
| 2026-05-03 21:57 | 41.30129 | 2.07896 | 19 ft | 3 kts | 240° |
| 2026-05-03 21:57 | 41.30109 | 2.07866 | 18 ft | 5 kts | 229° |
| 2026-05-03 21:58 | 41.30084 | 2.07821 | 18 ft | 7 kts | 239° |
| 2026-05-03 21:58 | 41.30064 | 2.07756 | 20 ft | 9 kts | 245° |
| 2026-05-03 21:58 | 41.30038 | 2.07675 | 20 ft | 10 kts | 262° |
| 2026-05-03 21:58 | 41.30079 | 2.07625 | 20 ft | 8 kts | 347° |
| 2026-05-03 21:59 | 41.30129 | 2.07647 | 21 ft | 8 kts | 26° |
| 2026-05-03 21:59 | 41.30135 | 2.07651 | 21 ft | 1 kts | 26° |
| 2026-05-03 21:59 | 41.30144 | 2.07657 | 23 ft | 2 kts | 27° |
| 2026-05-03 21:59 | 41.30145 | 2.07658 | 23 ft | 0 kts | 27° |